createdAt,value
2023-03-20T00:01:28.519Z,84.00
2023-03-20T00:03:55.511Z,84.00
2023-03-20T00:06:24.425Z,83.90
2023-03-20T00:08:53.186Z,84.00
2023-03-20T00:11:33.141Z,84.00
2023-03-20T00:14:06.108Z,83.90
2023-03-20T00:16:38.944Z,83.90
2023-03-20T00:19:07.086Z,84.10
2023-03-20T00:21:34.189Z,84.00
2023-03-20T00:24:01.809Z,84.00
2023-03-20T00:26:33.345Z,83.90
2023-03-20T00:29:00.837Z,83.90
2023-03-20T00:31:35.469Z,84.00
2023-03-20T00:34:05.355Z,83.90
2023-03-20T00:36:32.521Z,83.90
2023-03-20T00:38:59.256Z,83.90
2023-03-20T00:41:39.276Z,83.90
2023-03-20T00:44:28.934Z,84.70
2023-03-20T00:47:01.758Z,83.90
2023-03-20T00:49:31.027Z,83.90
2023-03-20T00:51:58.171Z,83.90
2023-03-20T00:54:25.320Z,83.90
2023-03-20T00:56:57.467Z,83.90
2023-03-20T00:59:37.706Z,83.90
2023-03-20T01:02:04.929Z,83.90
2023-03-20T01:04:37.248Z,83.90
2023-03-20T01:07:04.746Z,83.90
2023-03-20T01:09:31.661Z,83.90
2023-03-20T01:12:00.654Z,83.90
2023-03-20T01:14:27.267Z,83.90
2023-03-20T01:16:53.996Z,83.90
2023-03-20T01:19:20.695Z,83.90
2023-03-20T01:21:47.532Z,83.90
2023-03-20T01:24:14.169Z,83.80
2023-03-20T01:26:42.925Z,83.90
2023-03-20T01:29:24.489Z,83.80
2023-03-20T01:31:52.190Z,83.80
2023-03-20T01:34:19.480Z,83.70
2023-03-20T01:36:50.536Z,83.80
2023-03-20T01:39:18.973Z,83.90
2023-03-20T01:41:46.984Z,83.90
2023-03-20T01:44:24.176Z,83.90
2023-03-20T01:46:53.628Z,83.80
2023-03-20T01:49:20.461Z,83.90
2023-03-20T01:51:48.321Z,83.70
2023-03-20T01:54:19.919Z,83.90
2023-03-20T01:56:57.045Z,83.80
2023-03-20T01:59:29.386Z,83.80
2023-03-20T02:01:56.961Z,83.90
2023-03-20T02:04:41.395Z,83.80
2023-03-20T02:07:10.206Z,83.70
2023-03-20T02:09:37.336Z,83.70
2023-03-20T02:12:04.544Z,83.80
2023-03-20T02:14:32.935Z,83.70
2023-03-20T02:16:59.643Z,83.80
2023-03-20T02:19:39.113Z,83.70
2023-03-20T02:22:11.340Z,83.70
2023-03-20T02:24:40.628Z,83.80
2023-03-20T02:27:16.003Z,83.70
2023-03-20T02:29:51.579Z,83.70
2023-03-20T02:32:55.752Z,83.70
2023-03-20T02:35:59.405Z,83.70
2023-03-20T02:39:02.096Z,83.80
2023-03-20T02:41:37.877Z,83.70
2023-03-20T02:44:08.666Z,83.70
2023-03-20T02:46:38.387Z,83.70
2023-03-20T02:49:19.950Z,83.70
2023-03-20T02:52:13.324Z,83.70
2023-03-20T02:54:43.743Z,83.70
2023-03-20T02:57:20.605Z,83.70
2023-03-20T02:59:52.951Z,83.70
2023-03-20T03:02:26.992Z,83.70
2023-03-20T03:04:59.182Z,83.70
2023-03-20T03:07:30.762Z,83.70
2023-03-20T03:10:10.025Z,83.70
2023-03-20T03:12:41.116Z,83.70
2023-03-20T03:15:15.348Z,83.70
2023-03-20T03:17:44.551Z,83.70
2023-03-20T03:20:25.059Z,83.70
2023-03-20T03:22:51.693Z,83.70
2023-03-20T03:25:20.938Z,83.70
2023-03-20T03:27:53.350Z,83.70
2023-03-20T03:30:27.002Z,83.70
2023-03-20T03:33:11.792Z,83.70
2023-03-20T03:35:40.009Z,83.70
2023-03-20T03:38:17.950Z,83.70
2023-03-20T03:40:53.288Z,83.70
2023-03-20T03:43:28.039Z,83.70
2023-03-20T03:46:07.679Z,83.60
2023-03-20T03:48:40.612Z,83.60
2023-03-20T03:51:11.636Z,83.60
2023-03-20T03:53:42.721Z,83.60
2023-03-20T03:56:13.724Z,83.60
2023-03-20T03:58:42.697Z,83.60
2023-03-20T04:01:12.268Z,83.60
2023-03-20T04:03:43.322Z,83.60
2023-03-20T04:06:12.795Z,83.70
2023-03-20T04:08:41.760Z,83.60
2023-03-20T04:11:20.767Z,83.60
2023-03-20T04:13:49.521Z,83.60
2023-03-20T04:16:17.082Z,83.60
2023-03-20T04:18:45.086Z,83.60
2023-03-20T04:21:12.007Z,83.70
2023-03-20T04:23:38.864Z,83.70
2023-03-20T04:26:06.220Z,83.60
2023-03-20T04:28:33.236Z,83.60
2023-03-20T04:31:01.517Z,83.60
2023-03-20T04:33:28.695Z,83.60
2023-03-20T04:35:56.137Z,83.60
2023-03-20T04:38:23.955Z,83.60
2023-03-20T04:40:51.536Z,83.60
2023-03-20T04:43:18.365Z,83.70
2023-03-20T04:45:45.029Z,83.60
2023-03-20T04:48:11.863Z,83.60
2023-03-20T04:50:39.025Z,83.60
2023-03-20T04:53:05.803Z,83.60
2023-03-20T04:55:32.599Z,83.50
2023-03-20T04:57:59.220Z,83.60
2023-03-20T05:00:25.990Z,83.50
2023-03-20T05:02:52.549Z,83.60
2023-03-20T05:05:19.136Z,83.50
2023-03-20T05:07:45.928Z,83.60
2023-03-20T05:10:12.582Z,83.60
2023-03-20T05:12:39.201Z,83.70
2023-03-20T05:15:06.205Z,83.60
2023-03-20T05:17:32.757Z,83.50
2023-03-20T05:19:59.873Z,83.50
2023-03-20T05:22:26.534Z,83.50
2023-03-20T05:24:53.403Z,83.70
2023-03-20T05:27:20.121Z,83.50
2023-03-20T05:29:46.656Z,83.60
2023-03-20T05:32:13.583Z,83.50
2023-03-20T05:34:40.449Z,83.60
2023-03-20T05:37:07.086Z,83.60
2023-03-20T05:39:33.659Z,83.50
2023-03-20T05:42:00.605Z,83.60
2023-03-20T05:44:27.171Z,83.60
2023-03-20T05:46:53.788Z,84.50
2023-03-20T05:49:20.634Z,84.80
2023-03-20T05:51:47.257Z,84.70
2023-03-20T05:54:13.893Z,84.50
2023-03-20T05:56:40.962Z,84.70
2023-03-20T05:59:07.624Z,84.30
2023-03-20T06:01:34.218Z,84.30
2023-03-20T06:04:00.958Z,84.30
2023-03-20T06:06:27.613Z,84.30
2023-03-20T06:08:54.177Z,84.30
2023-03-20T06:11:21.140Z,84.30
2023-03-20T06:13:47.871Z,84.20
2023-03-20T06:16:14.598Z,84.20
2023-03-20T06:18:41.221Z,84.10
2023-03-20T06:21:07.943Z,84.10
2023-03-20T06:23:34.594Z,84.10
2023-03-20T06:26:01.228Z,84.10
2023-03-20T06:28:28.066Z,84.10
2023-03-20T06:30:54.783Z,84.20
2023-03-20T06:33:21.972Z,84.10
2023-03-20T06:35:49.220Z,84.00
2023-03-20T06:38:16.530Z,84.10
2023-03-20T06:40:43.301Z,84.10
2023-03-20T06:43:12.359Z,84.00
2023-03-20T06:45:39.621Z,84.00
2023-03-20T06:48:11.230Z,84.10
2023-03-20T06:50:37.775Z,84.10
2023-03-20T06:53:04.332Z,83.90
2023-03-20T06:55:31.188Z,83.90
2023-03-20T06:57:57.912Z,83.90
2023-03-20T07:00:24.753Z,83.90
2023-03-20T07:02:51.371Z,83.90
2023-03-20T07:05:18.311Z,83.90
2023-03-20T07:07:44.962Z,83.90
2023-03-20T07:10:12.366Z,83.90
2023-03-20T07:12:39.060Z,83.90
2023-03-20T07:15:06.629Z,83.90
2023-03-20T07:17:33.263Z,83.90
2023-03-20T07:19:59.876Z,83.80
2023-03-20T07:22:28.530Z,83.90
2023-03-20T07:24:55.183Z,83.80
2023-03-20T07:27:22.155Z,83.80
2023-03-20T07:29:48.816Z,83.80
2023-03-20T07:32:16.592Z,83.80
2023-03-20T07:34:43.629Z,83.70
2023-03-20T07:37:10.473Z,83.80
2023-03-20T07:39:37.075Z,83.70
2023-03-20T07:42:03.826Z,83.70
2023-03-20T07:44:30.515Z,83.70
2023-03-20T07:46:57.137Z,83.70
2023-03-20T07:49:24.043Z,83.70
2023-03-20T07:51:51.062Z,83.70
2023-03-20T07:54:18.269Z,83.70
2023-03-20T07:56:45.129Z,83.70
2023-03-20T07:59:13.366Z,83.70
2023-03-20T08:01:40.571Z,83.70
2023-03-20T08:04:07.328Z,83.70
2023-03-20T08:06:34.349Z,83.60
2023-03-20T08:09:01.757Z,83.70
2023-03-20T08:11:28.289Z,83.70
2023-03-20T08:13:54.885Z,83.70
2023-03-20T08:16:21.546Z,83.70
2023-03-20T08:18:48.450Z,83.70
2023-03-20T08:21:15.082Z,83.70
2023-03-20T08:23:41.679Z,83.70
2023-03-20T08:26:08.682Z,83.70
2023-03-20T08:28:51.411Z,83.70
2023-03-20T08:31:18.730Z,83.70
2023-03-20T08:33:46.362Z,83.70
2023-03-20T08:36:15.532Z,83.70
2023-03-20T08:38:42.686Z,83.60
2023-03-20T08:41:09.418Z,83.70
2023-03-20T08:43:36.661Z,83.70
2023-03-20T08:46:03.995Z,83.70
2023-03-20T08:48:30.886Z,84.50
2023-03-20T08:50:57.529Z,83.70
2023-03-20T08:53:24.328Z,83.60
2023-03-20T08:55:52.246Z,83.60
2023-03-20T08:58:19.861Z,83.60
2023-03-20T09:00:47.026Z,83.60
2023-03-20T09:03:15.584Z,83.60
2023-03-20T09:05:44.930Z,83.50
2023-03-20T09:08:11.686Z,83.60
2023-03-20T09:10:38.413Z,83.60
2023-03-20T09:13:23.513Z,83.60
2023-03-20T09:15:53.050Z,83.50
2023-03-20T09:18:20.266Z,83.50
2023-03-20T09:20:47.592Z,83.50
2023-03-20T09:23:14.213Z,83.50
2023-03-20T09:25:40.815Z,83.70
2023-03-20T09:28:07.504Z,83.60
2023-03-20T09:30:34.608Z,83.50
2023-03-20T09:33:01.705Z,83.60
2023-03-20T09:35:28.571Z,83.60
2023-03-20T09:37:55.194Z,83.60
2023-03-20T09:40:37.091Z,83.70
2023-03-20T09:43:10.589Z,84.40
2023-03-20T09:45:57.947Z,83.60
2023-03-20T09:48:34.852Z,83.60
2023-03-20T09:51:04.566Z,83.50
2023-03-20T09:53:36.742Z,83.60
2023-03-20T09:56:04.127Z,83.50
2023-03-20T09:58:35.716Z,83.50
2023-03-20T10:01:05.430Z,83.50
2023-03-20T10:03:58.796Z,83.50
2023-03-20T10:06:25.477Z,83.50
2023-03-20T10:08:52.199Z,83.50
2023-03-20T10:11:50.794Z,83.50
2023-03-20T10:14:54.512Z,83.50
2023-03-20T10:17:48.237Z,83.50
2023-03-20T10:20:25.107Z,83.50
2023-03-20T10:23:07.249Z,83.50
2023-03-20T10:25:35.593Z,83.50
2023-03-20T10:28:06.916Z,83.50
2023-03-20T10:31:01.025Z,83.50
2023-03-20T10:33:55.517Z,83.50
2023-03-20T10:36:28.197Z,83.50
2023-03-20T10:39:07.825Z,83.60
2023-03-20T10:41:37.513Z,83.50
2023-03-20T10:44:06.017Z,83.50
2023-03-20T10:46:38.278Z,83.60
2023-03-20T10:49:33.687Z,83.50
2023-03-20T10:52:04.656Z,83.50
2023-03-20T10:54:39.296Z,83.50
2023-03-20T10:57:15.257Z,83.50
2023-03-20T10:59:48.909Z,83.50
2023-03-20T11:02:17.671Z,83.60
2023-03-20T11:04:44.683Z,83.60
2023-03-20T11:07:25.905Z,83.60
2023-03-20T11:10:10.386Z,83.60
2023-03-20T11:12:45.417Z,83.60
2023-03-20T11:15:24.844Z,83.60
2023-03-20T11:18:00.245Z,83.60
2023-03-20T11:20:33.373Z,83.60
2023-03-20T11:23:04.215Z,83.60
2023-03-20T11:25:34.057Z,83.60
2023-03-20T11:28:36.344Z,83.70
2023-03-20T11:31:10.789Z,83.60
2023-03-20T11:33:51.863Z,83.60
2023-03-20T11:36:37.637Z,83.70
2023-03-20T11:39:14.241Z,83.70
2023-03-20T11:41:51.467Z,83.60
2023-03-20T11:44:49.136Z,83.70
2023-03-20T11:47:27.953Z,83.70
2023-03-20T11:50:03.380Z,83.70
2023-03-20T11:52:35.995Z,83.60
2023-03-20T11:55:07.052Z,83.70
2023-03-20T11:57:41.938Z,83.60
2023-03-20T12:00:11.235Z,83.70
2023-03-20T12:02:41.103Z,83.60
2023-03-20T12:05:35.277Z,83.70
2023-03-20T12:08:20.070Z,83.70
2023-03-20T12:10:53.808Z,83.70
2023-03-20T12:13:26.049Z,83.70
2023-03-20T12:15:59.170Z,83.80
2023-03-20T12:18:36.233Z,83.80
2023-03-20T12:21:10.438Z,83.70
2023-03-20T12:24:09.669Z,83.80
2023-03-20T12:26:56.728Z,83.70
2023-03-20T12:29:38.016Z,83.80
2023-03-20T12:32:26.525Z,83.90
2023-03-20T12:34:59.356Z,83.90
2023-03-20T12:37:26.495Z,83.80
2023-03-20T12:39:59.170Z,83.90
2023-03-20T12:43:05.315Z,83.90
2023-03-20T12:45:39.787Z,83.90
2023-03-20T12:48:35.558Z,83.90
2023-03-20T12:51:13.729Z,83.90
2023-03-20T12:53:56.340Z,83.90
2023-03-20T12:56:22.927Z,83.90
2023-03-20T12:59:21.339Z,83.90
2023-03-20T13:01:53.365Z,83.90
2023-03-20T13:04:55.155Z,83.90
2023-03-20T13:07:36.152Z,83.90
2023-03-20T13:10:22.291Z,83.90
2023-03-20T13:13:13.744Z,83.90
2023-03-20T13:16:21.116Z,84.00
2023-03-20T13:19:19.023Z,83.90
2023-03-20T13:22:13.284Z,83.90
2023-03-20T13:25:24.317Z,83.90
2023-03-20T13:28:02.092Z,83.90
2023-03-20T13:30:44.147Z,83.90
2023-03-20T13:33:42.635Z,84.00
2023-03-20T13:36:36.471Z,83.90
2023-03-20T13:39:27.364Z,84.00
2023-03-20T13:41:55.720Z,84.00
2023-03-20T13:44:27.300Z,84.00
2023-03-20T13:46:58.446Z,84.00
2023-03-20T13:49:59.889Z,84.00
2023-03-20T13:52:35.189Z,84.00
2023-03-20T13:55:53.128Z,84.00
2023-03-20T13:59:02.948Z,83.90
2023-03-20T14:01:53.748Z,84.00
2023-03-20T14:04:22.887Z,84.00
2023-03-20T14:06:52.769Z,83.90
2023-03-20T14:09:34.639Z,83.90
2023-03-20T14:12:10.784Z,83.90
2023-03-20T14:14:52.261Z,83.90
2023-03-20T14:17:27.272Z,83.90
2023-03-20T14:19:55.897Z,83.90
2023-03-20T14:22:34.722Z,83.80
2023-03-20T14:25:08.134Z,83.80
2023-03-20T14:27:52.582Z,83.90
2023-03-20T14:30:31.178Z,83.80
2023-03-20T14:33:14.489Z,83.80
2023-03-20T14:35:44.491Z,83.90
2023-03-20T14:38:33.020Z,83.80
2023-03-20T14:41:23.821Z,83.80
2023-03-20T14:44:19.886Z,83.80
2023-03-20T14:46:59.340Z,83.80
2023-03-20T14:50:04.253Z,83.70
2023-03-20T14:52:51.932Z,83.80
2023-03-20T14:55:22.288Z,83.70
2023-03-20T14:57:56.540Z,83.80
2023-03-20T15:00:30.763Z,83.80
2023-03-20T15:03:06.791Z,83.60
2023-03-20T15:05:36.470Z,83.60
2023-03-20T15:08:31.185Z,83.60
2023-03-20T15:11:01.912Z,83.60
2023-03-20T15:13:31.041Z,83.60
2023-03-20T15:16:03.379Z,83.60
2023-03-20T15:18:31.241Z,83.60
2023-03-20T15:20:58.300Z,83.50
2023-03-20T15:23:26.024Z,83.50
2023-03-20T15:25:52.984Z,83.40
2023-03-20T15:28:27.370Z,83.60
2023-03-20T15:30:57.812Z,83.60
2023-03-20T15:33:31.211Z,83.60
2023-03-20T15:35:58.306Z,83.60
2023-03-20T15:38:30.687Z,83.50
2023-03-20T15:40:57.836Z,83.40
2023-03-20T15:43:26.128Z,83.60
2023-03-20T15:46:14.228Z,83.40
2023-03-20T15:48:48.502Z,83.40
2023-03-20T15:51:15.916Z,83.50
2023-03-20T15:53:47.202Z,83.40
2023-03-20T15:56:19.188Z,83.40
2023-03-20T15:58:49.058Z,83.40
2023-03-20T16:01:21.489Z,83.50
2023-03-20T16:03:49.082Z,83.30
2023-03-20T16:06:19.609Z,83.40
2023-03-20T16:08:56.516Z,83.40
2023-03-20T16:11:23.283Z,83.40
2023-03-20T16:13:53.037Z,83.40
2023-03-20T16:16:23.628Z,83.40
2023-03-20T16:18:50.938Z,83.40
2023-03-20T16:21:31.229Z,83.30
2023-03-20T16:23:59.901Z,83.30
2023-03-20T16:26:27.586Z,83.30
2023-03-20T16:29:02.430Z,83.20
2023-03-20T16:31:35.003Z,83.30
2023-03-20T16:34:06.906Z,83.20
2023-03-20T16:36:36.230Z,83.20
2023-03-20T16:39:10.176Z,83.20
2023-03-20T16:41:41.090Z,83.20
2023-03-20T16:44:32.986Z,83.10
2023-03-20T16:47:01.344Z,83.20
2023-03-20T16:49:52.230Z,83.20
2023-03-20T16:52:27.480Z,83.30
2023-03-20T16:54:57.344Z,83.20
2023-03-20T16:57:25.809Z,82.90
2023-03-20T16:59:57.410Z,83.00
2023-03-20T17:02:29.334Z,82.80
2023-03-20T17:04:57.913Z,83.00
2023-03-20T17:07:28.050Z,82.90
2023-03-20T17:10:11.808Z,83.10
2023-03-20T17:12:40.816Z,83.10
2023-03-20T17:15:08.208Z,83.20
2023-03-20T17:17:34.859Z,83.20
2023-03-20T17:20:01.508Z,83.20
2023-03-20T17:22:33.349Z,83.10
2023-03-20T17:25:00.124Z,83.20
2023-03-20T17:27:29.447Z,83.00
2023-03-20T17:29:56.656Z,83.10
2023-03-20T17:32:26.117Z,83.00
2023-03-20T17:34:52.686Z,83.10
2023-03-20T17:37:30.113Z,83.00
2023-03-20T17:39:57.616Z,83.10
2023-03-20T17:42:26.732Z,83.00
2023-03-20T17:44:53.476Z,81.10
2023-03-20T17:47:23.981Z,77.70
2023-03-20T17:49:52.005Z,75.80
2023-03-20T17:52:21.039Z,74.60
2023-03-20T17:54:47.709Z,74.30
2023-03-20T17:57:36.907Z,74.00
2023-03-20T18:00:16.419Z,73.10
2023-03-20T18:02:43.002Z,73.20
2023-03-20T18:05:10.470Z,73.40
2023-03-20T18:07:37.263Z,73.00
2023-03-20T18:10:05.624Z,73.10
2023-03-20T18:12:34.379Z,73.30
2023-03-20T18:15:01.366Z,72.80
2023-03-20T18:17:28.124Z,73.20
2023-03-20T18:19:54.732Z,72.80
2023-03-20T18:22:21.283Z,73.00
2023-03-20T18:24:47.856Z,73.00
2023-03-20T18:27:14.395Z,72.80
2023-03-20T18:29:41.116Z,72.80
2023-03-20T18:32:07.652Z,73.20
2023-03-20T18:34:34.232Z,73.40
2023-03-20T18:37:01.220Z,73.40
2023-03-20T18:39:27.812Z,73.30
2023-03-20T18:41:54.680Z,73.40
2023-03-20T18:44:21.815Z,73.30
2023-03-20T18:46:48.483Z,73.70
2023-03-20T18:49:17.441Z,73.70
2023-03-20T18:51:45.093Z,73.50
2023-03-20T18:54:11.930Z,73.70
2023-03-20T18:56:38.606Z,73.80
2023-03-20T18:59:07.733Z,73.80
2023-03-20T19:01:35.908Z,74.00
2023-03-20T19:04:03.167Z,74.30
2023-03-20T19:06:31.937Z,74.10
2023-03-20T19:08:58.674Z,74.20
2023-03-20T19:11:25.521Z,74.30
2023-03-20T19:13:53.495Z,74.10
2023-03-20T19:16:32.529Z,74.50
2023-03-20T19:19:01.709Z,74.20
2023-03-20T19:21:29.777Z,74.50
2023-03-20T19:24:02.069Z,74.50
2023-03-20T19:26:30.551Z,74.60
2023-03-20T19:28:58.704Z,74.70
2023-03-20T19:31:26.661Z,74.90
2023-03-20T19:33:53.679Z,75.00
2023-03-20T19:36:25.902Z,75.20
2023-03-20T19:38:52.962Z,76.00
2023-03-20T19:41:20.254Z,77.00
2023-03-20T19:43:53.022Z,77.50
2023-03-20T19:46:38.241Z,77.60
2023-03-20T19:49:06.846Z,77.70
2023-03-20T19:51:33.685Z,77.80
2023-03-20T19:54:00.529Z,77.90
2023-03-20T19:56:27.300Z,78.00
2023-03-20T19:58:54.189Z,78.20
2023-03-20T20:01:23.710Z,78.40
2023-03-20T20:03:53.405Z,79.20
2023-03-20T20:06:22.411Z,78.60
2023-03-20T20:08:51.176Z,78.60
2023-03-20T20:11:19.295Z,78.60
2023-03-20T20:14:07.041Z,78.80
2023-03-20T20:16:34.350Z,78.70
2023-03-20T20:19:01.061Z,78.60
2023-03-20T20:24:15.934Z,78.50
2023-03-20T20:26:53.328Z,78.50
2023-03-20T20:29:21.699Z,78.40
2023-03-20T20:31:48.401Z,78.50
2023-03-20T20:35:14.939Z,78.50
2023-03-20T20:37:51.183Z,78.50
2023-03-20T20:39:48.772Z,79.30
2023-03-20T20:42:16.968Z,78.50
2023-03-20T20:44:44.295Z,78.50
2023-03-20T20:47:11.079Z,78.40
2023-03-20T20:49:37.676Z,78.40
2023-03-20T20:52:05.071Z,78.50
2023-03-20T20:54:31.637Z,78.50
2023-03-20T20:56:58.242Z,78.50
2023-03-20T20:59:24.832Z,78.60
2023-03-20T21:01:53.602Z,78.70
2023-03-20T21:04:20.681Z,78.70
2023-03-20T21:09:34.092Z,78.70
2023-03-20T21:12:01.375Z,78.70
2023-03-20T21:14:28.294Z,78.70
2023-03-20T21:17:00.826Z,78.80
2023-03-20T21:19:29.297Z,78.90
2023-03-20T21:21:56.282Z,78.90
2023-03-20T21:24:32.175Z,78.90
2023-03-20T21:27:00.226Z,78.90
2023-03-20T21:29:27.346Z,78.90
2023-03-20T21:31:53.959Z,78.90
2023-03-20T21:34:20.770Z,79.00
2023-03-20T21:36:49.108Z,79.00
2023-03-20T21:39:17.524Z,79.10
2023-03-20T21:41:45.257Z,79.10
2023-03-20T21:44:17.468Z,79.10
2023-03-20T21:47:38.028Z,79.10
2023-03-20T21:56:02.320Z,79.20
2023-03-20T21:58:39.651Z,79.20
2023-03-20T22:01:29.785Z,79.30
2023-03-20T22:04:06.364Z,80.00
2023-03-20T22:21:00.676Z,79.40
2023-03-20T22:32:20.883Z,79.50
2023-03-20T22:37:57.140Z,79.50
2023-03-20T22:43:02.372Z,79.60
2023-03-20T22:45:38.483Z,79.50
2023-03-20T22:48:10.825Z,79.60
2023-03-20T22:50:38.856Z,79.60
2023-03-20T22:53:06.122Z,79.60
2023-03-20T22:55:33.062Z,79.70
2023-03-20T22:58:06.956Z,79.70
2023-03-20T23:00:35.350Z,79.70
2023-03-20T23:03:17.174Z,79.70
2023-03-20T23:05:49.506Z,79.70
2023-03-20T23:08:16.406Z,79.70
2023-03-20T23:10:45.727Z,79.70
2023-03-20T23:13:13.416Z,79.70
2023-03-20T23:15:40.165Z,79.80
2023-03-20T23:18:07.328Z,79.80
2023-03-20T23:20:33.997Z,79.90
2023-03-20T23:23:00.866Z,79.90
2023-03-20T23:25:38.667Z,79.90
2023-03-20T23:28:07.432Z,79.80
2023-03-20T23:30:43.916Z,79.90
2023-03-20T23:33:13.283Z,79.90
2023-03-20T23:35:39.975Z,79.90
2023-03-20T23:38:06.603Z,79.90
2023-03-20T23:40:33.297Z,79.90
2023-03-20T23:42:59.962Z,79.90
2023-03-20T23:45:26.623Z,79.90
2023-03-20T23:47:53.314Z,79.90
2023-03-20T23:50:30.075Z,80.00
2023-03-20T23:53:09.814Z,80.00
2023-03-20T23:55:45.354Z,80.00
2023-03-20T23:58:13.091Z,80.80
